Terminal Aerodrome Forecast
Issued by NWS Sterling, VA

Current Version | Previous Version | Graphics & Text | Print | Product List | Glossary On
Versions: 1 2 3 4 5 6 7 8 9 10 11 12 13 14 15 16 17 18 19 20 21 22 23 24 25 26 27
000
FTUS41 KLWX 262130 AAA
TAFIAD
TAF AMD
KIAD 262130Z 2622/2724 16009KT P6SM OVC025
     FM270600 23006KT 4SM -SHRA BKN008 OVC010
     FM270900 31005KT 4SM BR BKN015 OVC050
     FM271200 33005KT P6SM BKN040 BKN070
     FM271600 31004KT P6SM FEW110 SCT250
     FM271800 23004KT P6SM FEW200 SCT250=

USA.gov is the U.S. government's official web portal to all federal, state and local government web resources and services.